createdAt,value
2023-03-12T00:01:24.071Z,7.83
2023-03-12T00:06:25.777Z,5.43
2023-03-12T00:11:27.685Z,4.57
2023-03-12T00:16:30.724Z,4.47
2023-03-12T00:21:32.408Z,6.80
2023-03-12T00:26:34.110Z,8.83
2023-03-12T00:31:37.411Z,3.80
2023-03-12T00:36:41.191Z,8.03
2023-03-12T00:41:42.982Z,4.97
2023-03-12T00:46:46.103Z,7.93
2023-03-12T00:51:48.089Z,4.40
2023-03-12T00:56:49.896Z,3.13
2023-03-12T01:01:53.018Z,6.90
2023-03-12T01:06:55.060Z,11.93
2023-03-12T01:11:56.796Z,10.93
2023-03-12T01:16:59.916Z,5.63
2023-03-12T01:22:01.769Z,8.40
2023-03-12T01:27:04.685Z,13.97
2023-03-12T01:32:08.113Z,7.43
2023-03-12T01:37:09.847Z,4.00
2023-03-12T01:42:11.600Z,7.10
2023-03-12T01:47:14.976Z,5.07
2023-03-12T01:52:17.443Z,6.50
2023-03-12T01:57:24.590Z,8.57
2023-03-12T02:02:29.772Z,7.27
2023-03-12T02:07:34.648Z,6.83
2023-03-12T02:12:36.337Z,3.33
2023-03-12T02:17:40.503Z,5.20
2023-03-12T02:22:44.394Z,6.20
2023-03-12T02:27:47.430Z,7.40
2023-03-12T02:32:49.670Z,7.83
2023-03-12T02:37:54.385Z,2.83
2023-03-12T02:42:58.079Z,2.63
2023-03-12T02:48:00.009Z,4.50
2023-03-12T02:53:01.794Z,4.00
2023-03-12T02:58:05.073Z,5.33
2023-03-12T03:03:06.862Z,4.00
2023-03-12T03:08:08.593Z,5.80
2023-03-12T03:13:11.677Z,3.43
2023-03-12T03:18:13.604Z,4.00
2023-03-12T03:23:15.357Z,6.10
2023-03-12T03:28:18.533Z,5.00
2023-03-12T03:33:20.421Z,5.20
2023-03-12T03:38:22.549Z,5.07
2023-03-12T03:43:25.734Z,7.50
2023-03-12T03:48:27.778Z,9.87
2023-03-12T03:53:29.764Z,6.03
2023-03-12T03:58:33.262Z,3.23
2023-03-12T04:03:35.325Z,7.40
2023-03-12T04:08:38.917Z,7.40
2023-03-12T04:13:45.499Z,3.80
2023-03-12T04:18:49.188Z,4.57
2023-03-12T04:23:51.879Z,12.67
2023-03-12T04:28:57.747Z,4.17
2023-03-12T04:33:59.664Z,3.80
2023-03-12T04:39:01.881Z,4.10
2023-03-12T04:44:11.615Z,7.80
2023-03-12T04:49:14.977Z,2.70
2023-03-12T04:54:17.769Z,3.10
2023-03-12T04:59:20.996Z,9.10
2023-03-12T05:04:22.961Z,12.90
2023-03-12T05:09:25.477Z,10.43
2023-03-12T05:14:29.124Z,8.07
2023-03-12T05:19:31.113Z,7.27
2023-03-12T05:24:32.988Z,4.23
2023-03-12T05:29:37.477Z,4.50
2023-03-12T05:34:39.332Z,3.10
2023-03-12T05:39:46.735Z,6.07
2023-03-12T05:44:52.295Z,8.40
2023-03-12T05:49:56.283Z,5.23
2023-03-12T05:54:58.279Z,7.00
2023-03-12T06:00:01.775Z,5.23
2023-03-12T06:05:14.925Z,6.93
2023-03-12T06:10:17.229Z,8.27
2023-03-12T06:15:21.142Z,11.53
2023-03-12T06:20:23.062Z,6.80
2023-03-12T06:25:24.898Z,9.50
2023-03-12T06:30:28.087Z,8.20
2023-03-12T06:35:30.019Z,10.00
2023-03-12T06:40:32.955Z,10.07
2023-03-12T06:45:36.072Z,11.83
2023-03-12T06:50:37.885Z,10.63
2023-03-12T06:55:39.583Z,7.80
2023-03-12T07:00:42.755Z,7.30
2023-03-12T07:05:44.714Z,7.63
2023-03-12T07:10:46.478Z,11.90
2023-03-12T07:15:49.848Z,12.87
2023-03-12T07:20:51.954Z,8.80
2023-03-12T07:25:53.833Z,8.23
2023-03-12T07:31:01.243Z,8.53
2023-03-12T07:36:03.475Z,12.20
2023-03-12T07:41:05.302Z,6.70
2023-03-12T07:46:08.381Z,14.07
2023-03-12T07:51:10.062Z,6.80
2023-03-12T07:56:11.936Z,4.03
2023-03-12T08:01:15.260Z,12.10
2023-03-12T08:06:17.046Z,9.77
2023-03-12T08:11:18.873Z,6.00
2023-03-12T08:16:21.934Z,4.00
2023-03-12T08:21:23.885Z,5.80
2023-03-12T08:26:25.634Z,6.70
2023-03-12T08:31:28.980Z,12.77
2023-03-12T08:36:30.731Z,15.83
2023-03-12T08:41:32.516Z,13.40
2023-03-12T08:46:35.504Z,7.27
2023-03-12T08:51:37.238Z,7.87
2023-03-12T08:56:42.293Z,4.93
2023-03-12T09:01:45.362Z,5.90
2023-03-12T09:06:47.280Z,3.27
2023-03-12T09:11:49.009Z,4.73
2023-03-12T09:16:52.150Z,7.33
2023-03-12T09:21:53.965Z,5.60
2023-03-12T09:26:55.647Z,6.20
2023-03-12T09:31:58.646Z,4.67
2023-03-12T09:37:00.332Z,7.43
2023-03-12T09:42:02.156Z,11.83
2023-03-12T09:47:07.731Z,9.03
2023-03-12T09:52:16.598Z,5.90
2023-03-12T09:57:21.046Z,3.00
2023-03-12T10:02:55.979Z,8.55
2023-03-12T10:07:58.479Z,5.93
2023-03-12T10:13:08.193Z,5.53
2023-03-12T10:18:17.286Z,6.70
2023-03-12T10:23:23.277Z,5.37
2023-03-12T10:28:28.639Z,7.83
2023-03-12T10:33:37.730Z,3.17
2023-03-12T10:38:39.394Z,11.33
2023-03-12T10:43:41.098Z,3.83
2023-03-12T10:48:44.255Z,7.03
2023-03-12T10:53:47.991Z,6.00
2023-03-12T10:58:50.939Z,5.07
2023-03-12T11:04:07.646Z,6.53
2023-03-12T11:09:17.557Z,3.67
2023-03-12T11:14:20.279Z,3.53
2023-03-12T11:19:28.766Z,7.17
2023-03-12T11:24:30.487Z,3.87
2023-03-12T11:29:33.292Z,4.20
2023-03-12T11:34:37.433Z,4.20
2023-03-12T11:39:50.933Z,7.87
2023-03-12T11:44:56.877Z,5.97
2023-03-12T11:50:06.132Z,9.20
2023-03-12T11:55:19.029Z,3.80
2023-03-12T12:00:22.533Z,2.20
2023-03-12T12:05:32.318Z,2.67
2023-03-12T12:10:37.712Z,5.60
2023-03-12T12:15:43.792Z,5.77
2023-03-12T12:20:48.897Z,8.90
2023-03-12T12:26:00.330Z,3.83
2023-03-12T12:31:08.197Z,6.33
2023-03-12T12:36:11.425Z,2.83
2023-03-12T12:41:15.409Z,2.67
2023-03-12T12:46:18.188Z,5.50
2023-03-12T12:51:22.854Z,4.90
2023-03-12T12:56:28.186Z,7.57
2023-03-12T13:01:30.069Z,3.87
2023-03-12T13:06:58.012Z,7.10
2023-03-12T13:11:59.771Z,7.90
2023-03-12T13:17:19.681Z,9.40
2023-03-12T13:22:29.352Z,7.80
2023-03-12T13:27:31.958Z,6.60
2023-03-12T13:32:38.568Z,8.30
2023-03-12T13:37:59.046Z,6.07
2023-03-12T13:43:09.292Z,6.20
2023-03-12T13:48:14.272Z,12.83
2023-03-12T13:53:20.731Z,8.07
2023-03-12T13:58:23.578Z,9.17
2023-03-12T14:03:26.318Z,13.13
2023-03-12T14:08:40.386Z,7.00
2023-03-12T14:14:04.025Z,5.50
2023-03-12T14:19:05.873Z,8.67
2023-03-12T14:24:12.726Z,5.53
2023-03-12T14:29:19.309Z,5.03
2023-03-12T14:34:22.884Z,5.13
2023-03-12T14:39:28.128Z,7.00
2023-03-12T14:44:30.627Z,6.27
2023-03-12T14:49:32.351Z,12.50
2023-03-12T14:54:35.541Z,5.83
2023-03-12T14:59:38.973Z,4.90
2023-03-12T15:04:40.736Z,8.77
2023-03-12T15:09:44.746Z,5.97
2023-03-12T15:14:46.419Z,5.60
2023-03-12T15:19:48.150Z,5.40
2023-03-12T15:24:51.145Z,5.10
2023-03-12T15:29:53.000Z,5.73
2023-03-12T15:34:55.148Z,7.20
2023-03-12T15:39:59.251Z,6.47
2023-03-12T15:45:03.207Z,7.60
2023-03-12T15:50:07.752Z,7.20
2023-03-12T15:55:22.634Z,12.33
2023-03-12T16:00:26.681Z,8.80
2023-03-12T16:05:30.201Z,12.17
2023-03-12T16:10:33.297Z,13.10
2023-03-12T16:15:37.502Z,7.23
2023-03-12T16:20:39.402Z,20.33
2023-03-12T16:25:43.098Z,10.67
2023-03-12T16:30:45.113Z,14.50
2023-03-12T16:35:46.947Z,12.10
2023-03-12T16:40:50.223Z,21.33
2023-03-12T16:45:52.532Z,18.80
2023-03-12T16:50:55.773Z,15.80
2023-03-12T16:56:00.693Z,13.97
2023-03-12T17:01:03.055Z,14.10
2023-03-12T17:06:05.499Z,10.73
2023-03-12T17:11:14.169Z,10.30
2023-03-12T17:16:16.198Z,12.33
2023-03-12T17:21:18.281Z,10.63
2023-03-12T17:26:21.591Z,12.27
2023-03-12T17:31:24.681Z,17.30
2023-03-12T17:36:26.600Z,11.07
2023-03-12T17:41:30.808Z,10.20
2023-03-12T17:46:32.722Z,8.93
2023-03-12T17:51:34.754Z,15.33
2023-03-12T17:56:37.773Z,11.73
2023-03-12T18:01:39.483Z,10.27
2023-03-12T18:06:41.150Z,13.40
2023-03-12T18:11:44.320Z,12.77
2023-03-12T18:16:47.058Z,9.47
2023-03-12T18:21:48.729Z,10.97
2023-03-12T18:26:52.169Z,17.33
2023-03-12T18:31:53.900Z,24.60
2023-03-12T18:36:55.582Z,14.37
2023-03-12T18:41:58.591Z,24.17
2023-03-12T18:47:00.328Z,11.90
2023-03-12T18:52:02.062Z,13.00
2023-03-12T18:57:05.216Z,15.37
2023-03-12T19:02:07.408Z,15.70
2023-03-12T19:07:10.650Z,18.07
2023-03-12T19:12:14.157Z,17.77
2023-03-12T19:17:15.884Z,17.33
2023-03-12T19:22:17.583Z,22.70
2023-03-12T19:27:21.035Z,20.23
2023-03-12T19:32:25.383Z,19.70
2023-03-12T19:37:29.380Z,44.10
2023-03-12T19:42:32.456Z,22.17
2023-03-12T19:47:34.210Z,19.93
2023-03-12T19:52:35.968Z,23.00
2023-03-12T19:57:39.110Z,22.07
2023-03-12T20:02:41.174Z,31.80
2023-03-12T20:07:44.240Z,25.70
2023-03-12T20:12:47.350Z,31.40
2023-03-12T20:17:49.059Z,31.40
2023-03-12T20:22:50.778Z,27.97
2023-03-12T20:27:53.826Z,35.20
2023-03-12T20:32:55.620Z,27.13
2023-03-12T20:37:57.411Z,29.80
2023-03-12T20:43:04.629Z,36.67
2023-03-12T20:48:10.035Z,31.97
2023-03-12T20:53:11.840Z,38.10
2023-03-12T20:58:14.850Z,28.87
2023-03-12T21:03:17.195Z,27.20
2023-03-12T21:08:18.922Z,30.10
2023-03-12T21:13:22.469Z,30.90
2023-03-12T21:18:25.017Z,28.23
2023-03-12T21:23:27.172Z,30.30
2023-03-12T21:28:30.957Z,41.07
2023-03-12T21:33:32.678Z,25.70
2023-03-12T21:38:34.461Z,33.20
2023-03-12T21:43:37.499Z,25.33
2023-03-12T21:48:39.375Z,31.20
2023-03-12T21:53:41.124Z,31.07
2023-03-12T21:58:44.874Z,32.17
2023-03-12T22:03:46.706Z,26.83
2023-03-12T22:08:49.162Z,29.60
2023-03-12T22:13:52.220Z,23.50
2023-03-12T22:18:53.904Z,20.30
2023-03-12T22:23:57.221Z,40.53
2023-03-12T22:29:01.213Z,27.10
2023-03-12T22:34:03.025Z,21.10
2023-03-12T22:39:05.679Z,23.10
2023-03-12T22:44:09.283Z,24.17
2023-03-12T22:49:11.061Z,22.83
2023-03-12T22:54:12.794Z,30.07
2023-03-12T22:59:15.828Z,22.90
2023-03-12T23:04:17.567Z,30.40
2023-03-12T23:09:19.419Z,22.43
2023-03-12T23:14:22.667Z,25.90
2023-03-12T23:19:24.387Z,24.00
2023-03-12T23:24:26.143Z,24.00
2023-03-12T23:29:30.588Z,24.03
2023-03-12T23:34:33.256Z,24.27
2023-03-12T23:39:44.973Z,24.23
2023-03-12T23:44:55.058Z,22.90
2023-03-12T23:49:56.819Z,22.30
2023-03-12T23:54:58.518Z,29.20
